Terminal Aerodrome Forecast
Issued by NWS Raleigh/Durham, NC

Home | Current Version | Previous Version | Text Only | Print | Product List | Glossary On
Versions: 1 2 3 4 5 6 7 8 9 10 11 12 13 14 15 16 17 18 19 20 21 22 23
000
FTUS42 KRAH 251120
TAFRDU
TAF
KRDU 251120Z 2512/2612 21010KT P6SM BKN100
     FM251400 22011KT P6SM SCT140
     FM251700 23012KT P6SM BKN070
     FM251800 24012KT P6SM VCSH BKN045
     FM252100 25008KT P6SM -SHRA OVC080
     FM261100 VRB04KT 5SM -SHRA OVC025=

USA.gov is the U.S. government's official web portal to all federal, state and local government web resources and services.